Time;durP1;ratioP1;P1;durP2;ratioP2;P2;SDS_P1;SDS_P2;PMS_P1;PMS_P2;Temp;Humidity;BMP_temperature;BMP_pressure;BME280_temperature;BME280_humidity;BME280_pressure;Samples;Min_cycle;Max_cycle;Signal;HPM_P1;HPM_P2
2022/08/28 00:00:23;;;;;;;3.53;2.80;;;19.00;97.30;;;;;;5051404;28;20195;-87
2022/08/28 00:02:49;;;;;;;4.97;2.87;;;19.00;97.30;;;;;;5051610;28;20920;-87
2022/08/28 00:05:17;;;;;;;2.70;1.70;;;19.00;97.30;;;;;;5052726;28;20548;-87
2022/08/28 00:07:43;;;;;;;6.00;3.13;;;19.00;97.30;;;;;;5052352;28;20766;-88
2022/08/28 00:10:11;;;;;;;3.47;3.03;;;19.00;97.30;;;;;;5051084;28;20561;-88
2022/08/28 00:12:37;;;;;;;10.70;4.50;;;19.00;97.30;;;;;;5052413;28;20203;-88
2022/08/28 00:15:06;;;;;;;5.43;2.30;;;19.00;97.30;;;;;;5049244;28;20494;-88
2022/08/28 00:17:32;;;;;;;6.07;2.40;;;19.00;97.30;;;;;;5030454;28;20450;-88
2022/08/28 00:19:57;;;;;;;11.10;2.80;;;19.00;97.30;;;;;;5031337;28;20918;-87
2022/08/28 00:22:23;;;;;;;5.20;2.97;;;18.90;97.30;;;;;;5030969;28;20187;-88
2022/08/28 00:24:48;;;;;;;6.37;3.50;;;18.90;97.30;;;;;;5031047;28;20272;-87
2022/08/28 00:29:58;;;;;;;2.80;2.67;;;18.90;97.30;;;;;;5033110;28;20434;-88
2022/08/28 00:32:24;;;;;;;1.87;1.43;;;18.90;97.30;;;;;;5030779;28;20451;-87
2022/08/28 00:34:53;;;;;;;4.00;2.80;;;18.90;97.30;;;;;;5031186;28;20268;-87
2022/08/28 00:37:18;;;;;;;4.23;2.97;;;18.90;97.30;;;;;;5032311;28;20193;-87
2022/08/28 00:39:44;;;;;;;4.53;2.10;;;18.90;97.30;;;;;;5031060;28;20845;-88
2022/08/28 00:42:09;;;;;;;2.60;2.33;;;18.90;97.30;;;;;;5030720;28;20187;-88
2022/08/28 00:44:35;;;;;;;3.90;2.40;;;18.90;97.30;;;;;;5030905;28;20184;-87
2022/08/28 00:47:01;;;;;;;2.60;1.47;;;18.90;97.30;;;;;;5030376;28;20184;-88
2022/08/28 00:49:30;;;;;;;2.50;1.57;;;18.90;97.30;;;;;;5030553;28;20262;-87
2022/08/28 00:52:04;;;;;;;17.20;1.90;;;18.90;97.30;;;;;;5031777;28;20231;-87
2022/08/28 00:54:32;;;;;;;1.93;1.20;;;18.80;97.30;;;;;;5030692;28;20426;-87
2022/08/28 00:57:01;;;;;;;2.17;1.53;;;18.80;97.30;;;;;;5030349;28;20416;-87
2022/08/28 00:59:26;;;;;;;1.73;1.50;;;18.80;97.30;;;;;;5030471;28;20430;-87
2022/08/28 01:01:56;;;;;;;1.57;1.27;;;18.70;97.30;;;;;;5031570;28;20710;-88
2022/08/28 01:04:24;;;;;;;2.47;1.90;;;18.70;97.30;;;;;;5030400;28;20271;-87
2022/08/28 01:06:52;;;;;;;1.40;1.27;;;18.70;97.30;;;;;;5030147;28;20427;-88
2022/08/28 01:09:20;;;;;;;2.70;1.83;;;18.60;97.30;;;;;;5030032;28;20525;-89
2022/08/28 01:11:48;;;;;;;10.70;1.77;;;18.60;97.30;;;;;;5030405;28;20482;-87
2022/08/28 01:14:17;;;;;;;2.70;1.90;;;18.60;97.30;;;;;;5030030;28;20801;-87
2022/08/28 01:16:45;;;;;;;1.50;1.50;;;18.50;97.30;;;;;;5045806;28;20546;-87
2022/08/28 01:19:17;;;;;;;1.10;1.10;;;18.50;97.30;;;;;;5051357;28;20916;-87
2022/08/28 01:21:55;;;;;;;5.43;1.63;;;18.40;97.30;;;;;;5050026;28;20475;-87
2022/08/28 01:24:20;;;;;;;10.80;1.73;;;18.40;97.30;;;;;;5050067;28;20422;-88
2022/08/28 01:26:46;;;;;;;2.50;1.80;;;18.30;97.30;;;;;;5049969;28;20454;-87
2022/08/28 01:29:12;;;;;;;2.20;1.60;;;18.30;97.30;;;;;;5049539;28;20180;-87
2022/08/28 01:31:39;;;;;;;1.63;1.60;;;18.30;97.30;;;;;;5049585;28;20196;-88
2022/08/28 01:34:07;;;;;;;2.27;1.90;;;18.20;97.30;;;;;;5049824;28;20462;-88
2022/08/28 01:36:32;;;;;;;1.70;1.10;;;18.20;97.30;;;;;;5050922;28;20509;-87
2022/08/28 01:39:12;;;;;;;2.20;1.23;;;18.20;97.30;;;;;;5049699;28;20936;-87
2022/08/28 01:41:45;;;;;;;2.27;1.70;;;18.10;97.30;;;;;;5049699;28;20641;-88
2022/08/28 01:44:11;;;;;;;22.17;3.13;;;18.10;97.30;;;;;;5049918;28;20925;-88
2022/08/28 01:46:41;;;;;;;1.40;1.40;;;18.10;97.30;;;;;;5049562;28;20423;-87
2022/08/28 01:49:09;;;;;;;3.50;2.03;;;18.00;97.30;;;;;;5049508;28;20438;-87
2022/08/28 01:51:35;;;;;;;2.70;1.43;;;17.90;97.30;;;;;;5050691;28;20454;-88
2022/08/28 01:54:00;;;;;;;1.40;1.10;;;17.90;97.30;;;;;;5049566;28;20798;-87
2022/08/28 01:56:26;;;;;;;2.90;2.07;;;17.90;97.30;;;;;;5049438;28;20172;-87
2022/08/28 01:58:51;;;;;;;2.80;2.60;;;17.80;97.30;;;;;;5050518;28;20191;-87
2022/08/28 02:01:20;;;;;;;1.37;1.10;;;17.80;97.30;;;;;;5049400;28;20550;-87
2022/08/28 02:03:45;;;;;;;1.47;1.30;;;17.70;97.30;;;;;;5049266;28;20176;-87
2022/08/28 02:06:12;;;;;;;1.70;1.50;;;17.70;97.30;;;;;;5050597;28;21047;-87
2022/08/28 02:08:38;;;;;;;3.30;1.67;;;17.60;97.30;;;;;;5050144;28;20247;-87
2022/08/28 02:11:05;;;;;;;3.00;2.40;;;17.60;97.30;;;;;;5049789;28;20410;-87
2022/08/28 02:13:31;;;;;;;4.40;1.87;;;17.50;97.30;;;;;;5050436;28;20203;-88
2022/08/28 02:15:56;;;;;;;3.63;2.07;;;17.50;97.30;;;;;;5040138;28;20454;-87
2022/08/28 02:18:22;;;;;;;1.47;1.43;;;17.50;97.30;;;;;;5029172;28;20477;-88
2022/08/28 02:20:47;;;;;;;5.20;1.70;;;17.50;97.30;;;;;;5030439;28;20233;-87
2022/08/28 02:23:13;;;;;;;2.70;2.50;;;17.40;97.30;;;;;;5029314;28;20173;-87
2022/08/28 02:25:39;;;;;;;1.60;1.53;;;17.40;97.30;;;;;;5029476;28;20176;-87
2022/08/28 02:28:04;;;;;;;5.73;2.50;;;17.40;97.30;;;;;;5028777;28;20620;-87
2022/08/28 02:30:30;;;;;;;20.50;1.80;;;17.40;97.30;;;;;;5028985;28;20299;-87
2022/08/28 02:32:55;;;;;;;2.27;2.10;;;17.40;97.30;;;;;;5029039;28;20208;-87
2022/08/28 02:35:22;;;;;;;17.50;1.87;;;17.30;97.30;;;;;;5029551;28;20211;-87
2022/08/28 02:37:48;;;;;;;1.57;1.47;;;17.30;97.30;;;;;;5029132;28;20251;-87
2022/08/28 02:40:15;;;;;;;7.90;1.97;;;17.30;97.30;;;;;;5029915;28;20518;-87
2022/08/28 02:42:42;;;;;;;1.47;1.30;;;17.30;97.30;;;;;;5033012;28;20415;-88
2022/08/28 02:45:10;;;;;;;2.37;2.23;;;17.30;97.30;;;;;;5033135;28;20415;-87
2022/08/28 02:47:37;;;;;;;1.50;1.50;;;17.30;97.30;;;;;;5034385;28;20455;-87
2022/08/28 02:50:03;;;;;;;4.17;2.93;;;17.20;97.30;;;;;;5034053;28;20411;-88
2022/08/28 02:52:29;;;;;;;1.07;1.00;;;17.20;97.30;;;;;;5032858;28;20469;-87
2022/08/28 02:54:56;;;;;;;3.70;1.53;;;17.20;97.30;;;;;;5032609;28;20427;-87
2022/08/28 02:57:24;;;;;;;2.00;1.90;;;17.20;97.30;;;;;;5032782;28;20582;-87
2022/08/28 02:59:49;;;;;;;1.60;1.50;;;17.20;97.30;;;;;;5033116;28;20443;-87
2022/08/28 03:02:15;;;;;;;2.17;1.47;;;17.20;97.30;;;;;;5032744;28;20450;-86
2022/08/28 03:04:42;;;;;;;9.13;2.30;;;17.10;97.30;;;;;;5032754;28;20176;-87
2022/08/28 03:07:10;;;;;;;5.67;2.00;;;17.10;97.30;;;;;;5032969;28;20196;-87
2022/08/28 03:09:36;;;;;;;1.50;1.40;;;17.10;97.30;;;;;;5032627;28;20463;-87
2022/08/28 03:12:04;;;;;;;1.73;1.63;;;17.10;97.30;;;;;;5032792;28;20455;-87
2022/08/28 03:14:29;;;;;;;1.37;1.20;;;17.00;97.30;;;;;;5032391;28;20263;-87
2022/08/28 03:16:55;;;;;;;2.03;1.10;;;17.00;97.30;;;;;;5032855;28;20538;-86
2022/08/28 03:19:20;;;;;;;2.53;2.43;;;17.00;97.30;;;;;;5032793;28;20185;-86
2022/08/28 03:21:46;;;;;;;2.40;1.73;;;17.00;97.30;;;;;;5033987;28;20208;-86
2022/08/28 03:24:14;;;;;;;1.30;1.17;;;17.00;97.30;;;;;;5032559;28;20219;-87
2022/08/28 03:26:39;;;;;;;1.73;1.50;;;17.00;97.30;;;;;;5033653;28;20627;-87
2022/08/28 03:29:04;;;;;;;1.20;1.10;;;17.00;97.30;;;;;;5031791;28;20449;-87
2022/08/28 03:31:32;;;;;;;4.80;1.53;;;17.00;97.30;;;;;;5032201;28;20454;-87
2022/08/28 03:33:58;;;;;;;3.90;3.20;;;17.00;97.30;;;;;;5032053;28;20180;-87
2022/08/28 03:36:28;;;;;;;1.60;1.30;;;17.00;97.30;;;;;;5032151;28;20901;-87
2022/08/28 03:38:56;;;;;;;1.97;1.90;;;16.90;97.30;;;;;;5031821;28;20439;-87
2022/08/28 03:41:24;;;;;;;30.60;4.10;;;16.90;97.30;;;;;;5033251;28;20422;-87
2022/08/28 03:43:50;;;;;;;1.10;1.00;;;16.90;97.30;;;;;;5031754;28;20423;-88
2022/08/28 03:46:19;;;;;;;6.63;2.93;;;16.80;97.30;;;;;;5032223;28;20583;-87
2022/08/28 03:48:44;;;;;;;2.90;1.60;;;16.80;97.30;;;;;;5031858;28;20200;-87
2022/08/28 03:51:16;;;;;;;1.20;1.17;;;16.70;97.30;;;;;;5032071;28;20423;-87
2022/08/28 03:53:42;;;;;;;11.00;1.90;;;16.70;97.30;;;;;;5031113;28;20204;-87
2022/08/28 03:56:10;;;;;;;2.73;1.10;;;16.60;97.30;;;;;;5031952;28;20418;-86
2022/08/28 03:58:37;;;;;;;1.23;1.20;;;16.60;97.30;;;;;;5031605;28;20254;-87
2022/08/28 04:01:03;;;;;;;1.73;1.40;;;16.60;97.30;;;;;;5031842;28;20430;-87
2022/08/28 04:03:29;;;;;;;1.30;1.20;;;16.50;97.30;;;;;;5031524;28;20420;-87
2022/08/28 04:05:54;;;;;;;10.33;1.43;;;16.50;97.30;;;;;;5031676;28;20407;-86
2022/08/28 04:08:20;;;;;;;1.63;1.13;;;16.50;97.30;;;;;;5031469;28;20200;-86
2022/08/28 04:10:47;;;;;;;3.90;2.07;;;16.50;97.30;;;;;;5031522;28;20382;-87
2022/08/28 04:13:15;;;;;;;3.80;2.40;;;16.50;97.30;;;;;;5031535;28;20491;-87
2022/08/28 04:15:41;;;;;;;3.20;1.97;;;16.40;97.30;;;;;;5039862;28;20477;-87
2022/08/28 04:18:08;;;;;;;1.23;1.20;;;16.40;97.30;;;;;;5051436;28;20431;-87
2022/08/28 04:20:33;;;;;;;8.77;1.60;;;16.40;97.30;;;;;;5052251;28;20468;-87
2022/08/28 04:23:02;;;;;;;1.93;1.90;;;16.30;97.30;;;;;;5051101;28;20438;-87
2022/08/28 04:25:28;;;;;;;1.50;1.40;;;16.30;97.30;;;;;;5051497;28;20214;-86
2022/08/28 04:27:53;;;;;;;1.90;1.60;;;16.20;97.30;;;;;;5051168;28;20760;-87
2022/08/28 04:30:19;;;;;;;2.30;2.00;;;16.20;97.30;;;;;;5050770;28;20418;-86
2022/08/28 04:32:45;;;;;;;1.50;1.43;;;16.10;97.30;;;;;;5050926;28;20276;-87
2022/08/28 04:35:11;;;;;;;14.10;1.27;;;16.10;97.30;;;;;;5052290;28;20176;-87
2022/08/28 04:37:37;;;;;;;1.87;1.83;;;16.00;97.30;;;;;;5050863;28;20188;-87
2022/08/28 04:40:04;;;;;;;1.33;1.27;;;16.00;97.30;;;;;;5050910;28;20856;-87
2022/08/28 04:42:30;;;;;;;1.40;1.37;;;16.00;97.30;;;;;;5051989;28;20407;-87
2022/08/28 04:44:58;;;;;;;1.73;1.40;;;16.00;97.30;;;;;;5050645;28;20495;-87
2022/08/28 04:47:25;;;;;;;3.97;1.93;;;16.00;97.30;;;;;;5050879;28;20195;-88
2022/08/28 04:49:50;;;;;;;2.80;1.77;;;16.00;97.30;;;;;;5050848;28;20509;-87
2022/08/28 04:52:15;;;;;;;4.10;1.37;;;16.00;97.30;;;;;;5052221;28;20955;-87
2022/08/28 04:54:41;;;;;;;1.63;1.33;;;16.00;97.30;;;;;;5050561;28;20172;-87
2022/08/28 04:57:07;;;;;;;2.17;2.00;;;16.00;97.30;;;;;;5050619;28;20210;-87
2022/08/28 04:59:33;;;;;;;4.90;1.93;;;16.00;97.30;;;;;;5050441;28;20187;-87
2022/08/28 05:01:59;;;;;;;90.30;3.60;;;16.00;97.30;;;;;;5048425;28;20175;-86
2022/08/28 05:04:25;;;;;;;3.60;2.07;;;16.00;97.30;;;;;;5022346;28;20223;-87
2022/08/28 05:06:54;;;;;;;5.47;2.47;;;16.00;97.30;;;;;;5020317;28;20431;-87
2022/08/28 05:09:20;;;;;;;16.63;3.27;;;16.00;97.30;;;;;;5020387;28;20463;-86
2022/08/28 05:11:48;;;;;;;4.20;2.03;;;16.00;97.30;;;;;;5019980;28;20444;-87
2022/08/28 05:14:14;;;;;;;1.50;1.20;;;16.00;97.30;;;;;;5020414;28;20697;-86
2022/08/28 05:16:42;;;;;;;31.63;4.07;;;16.00;97.30;;;;;;5024879;28;20931;-87
2022/08/28 05:19:08;;;;;;;2.27;2.07;;;16.00;97.30;;;;;;5022523;28;20436;-84
2022/08/28 05:21:33;;;;;;;1.83;1.37;;;16.00;97.30;;;;;;5023995;28;20527;-86
2022/08/28 05:23:59;;;;;;;1.20;1.10;;;16.00;97.30;;;;;;5022288;28;20247;-86
2022/08/28 05:26:25;;;;;;;12.13;2.70;;;16.00;97.30;;;;;;5024906;28;20169;-86
2022/08/28 05:28:55;;;;;;;1.83;1.40;;;16.00;97.30;;;;;;5022430;28;20701;-86
2022/08/28 05:31:22;;;;;;;1.27;1.17;;;16.00;97.30;;;;;;5019762;28;20412;-86
2022/08/28 05:33:48;;;;;;;11.17;1.90;;;16.00;97.30;;;;;;5021744;28;20456;-86
2022/08/28 05:36:16;;;;;;;12.67;2.37;;;16.00;97.30;;;;;;5018351;28;20420;-87
2022/08/28 05:38:41;;;;;;;4.03;3.30;;;16.00;97.30;;;;;;5019500;28;20444;-86
2022/08/28 05:41:07;;;;;;;2.70;1.50;;;16.00;97.30;;;;;;5021166;28;20496;-86
2022/08/28 05:43:34;;;;;;;5.13;1.30;;;16.10;97.30;;;;;;5025683;28;20269;-87
2022/08/28 05:46:09;;;;;;;2.30;1.87;;;16.10;97.30;;;;;;5030644;28;20575;-86
2022/08/28 05:48:36;;;;;;;7.40;2.07;;;16.10;97.30;;;;;;5030360;28;20515;-87
2022/08/28 05:51:11;;;;;;;4.10;1.93;;;16.10;97.30;;;;;;5030516;28;20896;-86
2022/08/28 05:53:40;;;;;;;4.67;1.87;;;16.20;97.30;;;;;;5031580;28;20451;-87
2022/08/28 05:56:10;;;;;;;2.23;1.87;;;16.10;97.30;;;;;;5032513;28;20412;-87
2022/08/28 05:58:36;;;;;;;5.57;2.27;;;16.10;97.30;;;;;;5031415;28;20463;-86
2022/08/28 06:01:37;;;;;;;3.60;1.60;;;16.10;97.30;;;;;;5031713;28;20426;-86
2022/08/28 06:04:07;;;;;;;3.67;2.07;;;16.10;97.30;;;;;;5025686;28;20514;-86
2022/08/28 06:06:34;;;;;;;5.90;1.70;;;16.10;97.30;;;;;;5031491;28;20453;-87
2022/08/28 06:09:05;;;;;;;4.10;2.30;;;16.10;97.30;;;;;;5032265;28;20570;-87
2022/08/28 06:11:31;;;;;;;1.83;1.20;;;16.10;97.30;;;;;;5031055;28;20476;-87
2022/08/28 06:14:09;;;;;;;2.50;1.90;;;16.10;97.30;;;;;;5030392;28;20949;-86
2022/08/28 06:16:38;;;;;;;5.97;1.97;;;16.10;97.30;;;;;;5044134;28;20458;-86
2022/08/28 06:19:07;;;;;;;4.10;1.23;;;16.10;97.30;;;;;;5047863;28;20438;-88
2022/08/28 06:21:36;;;;;;;3.80;1.93;;;16.10;97.30;;;;;;5047835;28;20990;-87
2022/08/28 06:24:10;;;;;;;11.73;1.93;;;16.10;97.30;;;;;;5048638;28;20497;-87
2022/08/28 06:26:36;;;;;;;2.50;1.53;;;16.10;97.30;;;;;;5048124;28;20445;-87
2022/08/28 06:29:05;;;;;;;2.53;2.03;;;16.10;97.30;;;;;;5047963;28;20935;-87
2022/08/28 06:31:30;;;;;;;5.17;2.63;;;16.10;97.30;;;;;;5047880;28;20409;-87
2022/08/28 06:33:57;;;;;;;5.90;1.70;;;16.20;97.30;;;;;;5048368;28;20410;-87
2022/08/28 06:36:26;;;;;;;1.67;1.57;;;16.20;97.30;;;;;;5049401;28;20222;-87
2022/08/28 06:38:53;;;;;;;1.60;1.50;;;16.20;97.30;;;;;;5049163;28;20464;-88
2022/08/28 06:41:19;;;;;;;5.33;1.87;;;16.20;97.30;;;;;;5049450;28;20848;-87
2022/08/28 06:43:44;;;;;;;1.83;1.53;;;16.20;97.30;;;;;;5049345;28;20410;-87
2022/08/28 06:46:10;;;;;;;1.83;1.00;;;16.20;97.30;;;;;;5049067;28;20278;-87
2022/08/28 06:48:35;;;;;;;2.67;1.63;;;16.20;97.30;;;;;;5049255;28;20196;-87
2022/08/28 06:51:05;;;;;;;9.10;2.07;;;16.20;97.30;;;;;;5049211;28;20199;-88
2022/08/28 06:53:31;;;;;;;2.10;1.53;;;16.20;97.30;;;;;;5049180;28;20200;-86
2022/08/28 06:56:01;;;;;;;2.50;2.17;;;16.20;97.30;;;;;;5048767;28;20414;-88
2022/08/28 06:58:27;;;;;;;2.00;1.40;;;16.20;97.30;;;;;;5049076;28;20211;-87
2022/08/28 07:01:24;;;;;;;7.53;2.00;;;16.20;97.30;;;;;;5049158;28;20417;-86
2022/08/28 07:03:51;;;;;;;2.03;1.90;;;16.30;97.30;;;;;;5048793;28;20415;-87
2022/08/28 07:06:17;;;;;;;10.73;1.83;;;16.30;97.30;;;;;;5048826;28;20421;-86
2022/08/28 07:08:44;;;;;;;1.47;1.30;;;16.30;97.30;;;;;;5048700;28;20476;-89
2022/08/28 07:11:36;;;;;;;2.30;1.50;;;16.30;97.30;;;;;;5049130;28;20417;-88
2022/08/28 07:14:03;;;;;;;6.23;2.13;;;16.30;97.30;;;;;;5044841;28;20426;-87
2022/08/28 07:16:33;;;;;;;2.00;1.50;;;16.30;97.30;;;;;;5035018;28;20411;-87
2022/08/28 07:19:03;;;;;;;1.03;1.00;;;16.30;97.30;;;;;;5029297;28;20449;-87
2022/08/28 07:21:29;;;;;;;2.17;1.47;;;16.30;97.30;;;;;;5029084;28;20407;-87
2022/08/28 07:23:55;;;;;;;3.90;1.37;;;16.30;97.30;;;;;;5029005;28;20940;-85
2022/08/28 07:26:23;;;;;;;8.80;2.53;;;16.30;97.30;;;;;;5028848;28;20426;-87
2022/08/28 07:28:50;;;;;;;1.10;1.03;;;16.30;97.30;;;;;;5031868;28;20569;-88
2022/08/28 07:31:24;;;;;;;24.57;2.37;;;16.30;97.30;;;;;;5032657;28;20434;-87
2022/08/28 07:33:50;;;;;;;6.50;2.57;;;16.30;97.30;;;;;;5033920;28;20454;-87
2022/08/28 07:36:20;;;;;;;5.43;3.57;;;16.30;97.30;;;;;;5032446;28;20506;-88
2022/08/28 07:38:46;;;;;;;2.33;1.63;;;16.30;97.30;;;;;;5032298;28;20517;-87
2022/08/28 07:41:20;;;;;;;1.80;1.50;;;16.30;97.30;;;;;;5032106;28;20423;-87
2022/08/28 07:46:31;;;;;;;3.70;1.50;;;16.30;97.30;;;;;;5033930;28;20473;-87
2022/08/28 07:48:57;;;;;;;7.23;2.40;;;16.30;97.30;;;;;;5032282;28;20525;-87
2022/08/28 07:51:24;;;;;;;1.80;1.60;;;16.30;97.30;;;;;;5033878;28;20580;-87
2022/08/28 07:53:49;;;;;;;2.20;1.57;;;16.40;97.30;;;;;;5033443;28;20451;-88
2022/08/28 07:56:15;;;;;;;1.90;1.77;;;16.40;97.30;;;;;;5032110;28;20426;-87
2022/08/28 07:58:40;;;;;;;4.40;1.90;;;16.40;97.30;;;;;;5031925;28;20663;-88
2022/08/28 08:01:06;;;;;;;1.80;1.47;;;16.40;97.30;;;;;;5032006;28;20184;-88
2022/08/28 08:03:32;;;;;;;3.43;2.10;;;16.50;97.30;;;;;;5032130;28;20177;-87
2022/08/28 08:06:03;;;;;;;3.03;2.17;;;16.50;97.30;;;;;;5032138;28;20781;-87
2022/08/28 08:08:30;;;;;;;3.93;3.10;;;16.50;97.30;;;;;;5031920;28;20196;-87
2022/08/28 08:10:56;;;;;;;1.57;1.40;;;16.60;97.30;;;;;;5032374;28;20427;-87
2022/08/28 08:13:22;;;;;;;10.20;2.40;;;16.60;97.30;;;;;;5032731;28;20467;-88
2022/08/28 08:15:47;;;;;;;4.60;2.30;;;16.70;97.30;;;;;;5039726;28;20200;-88
2022/08/28 08:18:12;;;;;;;2.23;2.03;;;16.80;97.30;;;;;;5051439;28;20223;-87
2022/08/28 08:20:38;;;;;;;2.73;2.60;;;16.90;97.30;;;;;;5051735;28;20691;-88
2022/08/28 08:23:04;;;;;;;1.60;1.30;;;17.00;97.30;;;;;;5052633;28;20179;-86
2022/08/28 08:25:29;;;;;;;1.93;1.40;;;17.10;97.30;;;;;;5051451;28;20190;-87
2022/08/28 08:27:55;;;;;;;2.20;2.00;;;17.10;97.30;;;;;;5052335;28;20275;-86
2022/08/28 08:30:20;;;;;;;1.47;1.37;;;17.20;97.30;;;;;;5051538;28;20333;-87
2022/08/28 08:32:46;;;;;;;2.60;2.40;;;17.30;97.30;;;;;;5051044;28;20283;-87
2022/08/28 08:35:11;;;;;;;5.43;1.53;;;17.50;97.30;;;;;;5052522;28;20179;-87
2022/08/28 08:37:37;;;;;;;3.77;1.93;;;17.70;97.30;;;;;;5050998;28;20282;-87
2022/08/28 08:40:03;;;;;;;1.70;1.60;;;17.80;97.30;;;;;;5050649;28;20596;-87
2022/08/28 08:42:35;;;;;;;30.63;5.67;;;17.90;97.30;;;;;;5050921;28;20187;-87
2022/08/28 08:45:04;;;;;;;2.77;1.93;;;18.00;97.30;;;;;;5052703;28;20410;-88
2022/08/28 08:47:42;;;;;;;4.70;1.87;;;18.00;97.30;;;;;;5050714;28;20508;-87
2022/08/28 08:50:14;;;;;;;4.10;2.17;;;18.00;97.30;;;;;;5051019;28;20474;-88
2022/08/28 08:53:13;;;;;;;2.47;1.70;;;18.10;97.30;;;;;;5050650;28;20829;-87
2022/08/28 08:55:45;;;;;;;2.03;1.27;;;18.10;97.30;;;;;;5050926;28;20414;-87
2022/08/28 08:58:21;;;;;;;7.90;1.87;;;18.20;97.30;;;;;;5050797;28;20445;-89
2022/08/28 09:00:56;;;;;;;3.33;1.63;;;18.40;97.30;;;;;;5050836;28;20425;-87
2022/08/28 09:03:48;;;;;;;3.27;1.57;;;18.30;97.30;;;;;;5050611;28;20421;-87
2022/08/28 09:06:23;;;;;;;1.83;1.77;;;18.40;97.30;;;;;;5015782;28;20422;-87
2022/08/28 09:08:55;;;;;;;10.30;3.43;;;18.40;97.30;;;;;;5050098;28;20474;-87
2022/08/28 09:11:40;;;;;;;2.40;1.40;;;18.50;97.30;;;;;;5050425;28;20770;-87
2022/08/28 09:14:32;;;;;;;1.43;1.33;;;18.50;97.30;;;;;;5050351;28;20426;-87
2022/08/28 09:16:59;;;;;;;2.70;1.67;;;18.50;97.30;;;;;;5032612;28;20417;-88
2022/08/28 09:19:24;;;;;;;7.60;2.30;;;18.60;97.30;;;;;;5031606;28;20901;-86
2022/08/28 09:24:30;;;;;;;2.80;1.43;;;18.70;97.30;;;;;;5032941;28;20648;-89
2022/08/28 09:27:04;;;;;;;1.47;1.43;;;18.80;97.30;;;;;;5035056;28;20414;-90
2022/08/28 09:29:34;;;;;;;2.63;1.83;;;18.80;97.30;;;;;;5033606;28;20418;-89
2022/08/28 09:32:26;;;;;;;3.27;1.60;;;18.90;97.30;;;;;;5032887;28;20451;-89
2022/08/28 09:35:17;;;;;;;3.00;1.87;;;18.90;97.30;;;;;;5033238;28;20415;-88
2022/08/28 09:37:43;;;;;;;3.57;2.60;;;19.00;97.30;;;;;;5033886;28;20619;-90
2022/08/28 09:40:19;;;;;;;3.43;1.93;;;19.10;97.30;;;;;;5033102;28;20403;-91
2022/08/28 09:43:27;;;;;;;1.93;1.60;;;19.10;97.30;;;;;;5033953;28;20254;-90
2022/08/28 09:45:58;;;;;;;1.80;1.70;;;19.20;97.30;;;;;;5022998;28;20418;-90
2022/08/28 09:48:42;;;;;;;1.33;1.23;;;19.30;97.30;;;;;;5033125;28;20419;-89
2022/08/28 09:51:19;;;;;;;1.90;1.87;;;19.40;97.30;;;;;;5033300;28;20581;-91
2022/08/28 09:53:58;;;;;;;3.17;2.37;;;19.40;97.30;;;;;;5033424;28;20461;-89
2022/08/28 09:56:38;;;;;;;22.43;2.77;;;19.40;97.30;;;;;;5034136;28;20446;-91
2022/08/28 09:59:20;;;;;;;1.53;1.17;;;19.50;97.30;;;;;;5032979;28;20414;-90
2022/08/28 10:02:01;;;;;;;5.40;2.00;;;19.60;97.30;;;;;;5033209;28;20458;-90
2022/08/28 10:04:37;;;;;;;3.10;1.40;;;19.70;97.30;;;;;;5033090;28;20518;-91
2022/08/28 10:07:07;;;;;;;5.57;2.30;;;19.90;97.30;;;;;;5033186;28;20422;-90
2022/08/28 10:09:38;;;;;;;5.87;2.70;;;20.00;97.30;;;;;;5032223;28;20450;-90
2022/08/28 10:12:19;;;;;;;3.17;1.33;;;20.00;97.30;;;;;;5032794;28;20451;-90
2022/08/28 10:14:56;;;;;;;3.60;1.70;;;20.00;97.30;;;;;;5032765;28;20417;-89
2022/08/28 10:17:50;;;;;;;2.33;1.60;;;20.00;97.30;;;;;;5013804;28;20507;-91
2022/08/28 10:20:27;;;;;;;5.30;2.03;;;20.10;97.00;;;;;;5013175;28;20428;-90
2022/08/28 10:23:10;;;;;;;4.43;1.37;;;20.20;96.90;;;;;;5013126;28;20558;-90
2022/08/28 10:26:08;;;;;;;2.37;1.90;;;20.20;96.40;;;;;;5013868;28;20422;-91
2022/08/28 10:28:39;;;;;;;1.40;1.30;;;20.30;96.70;;;;;;5014241;28;20515;-89
2022/08/28 10:31:37;;;;;;;1.33;1.23;;;20.40;96.90;;;;;;5013778;28;20419;-90
2022/08/28 10:34:35;;;;;;;4.30;1.63;;;20.50;96.10;;;;;;4997238;28;20416;-91
2022/08/28 10:37:38;;;;;;;1.53;1.43;;;20.60;95.70;;;;;;5012837;28;20409;-92
2022/08/28 10:40:14;;;;;;;1.37;1.30;;;20.70;96.00;;;;;;5012965;28;20418;-90
2022/08/28 10:42:47;;;;;;;1.77;1.37;;;20.80;96.00;;;;;;5013057;28;20438;-91
2022/08/28 10:45:16;;;;;;;1.47;1.20;;;20.80;95.00;;;;;;5012154;28;20416;-90
2022/08/28 10:47:47;;;;;;;1.10;1.00;;;20.70;94.30;;;;;;5012644;28;20403;-90
2022/08/28 10:50:37;;;;;;;1.77;1.67;;;20.80;94.30;;;;;;5012331;28;20420;-89
2022/08/28 10:53:06;;;;;;;3.97;1.97;;;20.80;94.00;;;;;;5013422;28;20483;-89
2022/08/28 10:56:01;;;;;;;1.83;1.33;;;20.80;94.40;;;;;;5012621;28;20922;-89
2022/08/28 10:58:29;;;;;;;3.87;1.80;;;20.90;94.50;;;;;;5012598;28;20522;-89
2022/08/28 11:01:10;;;;;;;2.03;1.30;;;21.00;93.10;;;;;;5012899;28;20396;-89
2022/08/28 11:03:46;;;;;;;1.03;0.97;;;21.10;92.50;;;;;;5016133;28;20482;-90
2022/08/28 11:06:46;;;;;;;1.20;1.10;;;21.10;92.60;;;;;;5016776;28;20415;-90
2022/08/28 11:09:30;;;;;;;1.80;1.77;;;21.20;91.60;;;;;;5016317;28;20427;-89
2022/08/28 11:12:03;;;;;;;1.80;1.57;;;21.20;92.30;;;;;;5016482;28;20435;-91
2022/08/28 11:14:39;;;;;;;1.27;1.07;;;21.30;90.90;;;;;;5016029;28;20427;-90
2022/08/28 11:17:30;;;;;;;1.27;0.90;;;21.40;91.90;;;;;;5033726;28;20465;-90
2022/08/28 11:20:11;;;;;;;9.10;2.00;;;21.50;92.80;;;;;;5034653;28;20988;-92
2022/08/28 11:22:51;;;;;;;1.30;1.03;;;21.60;91.80;;;;;;5035289;28;20454;-90
2022/08/28 11:26:02;;;;;;;3.90;1.47;;;21.70;90.90;;;;;;5035157;28;20963;-91
2022/08/28 11:28:34;;;;;;;8.40;1.30;;;21.70;92.20;;;;;;5032453;28;20978;-89
2022/08/28 11:30:59;;;;;;;4.10;1.77;;;21.80;92.40;;;;;;5035472;28;20787;-89
2022/08/28 11:33:49;;;;;;;3.03;1.87;;;21.90;91.50;;;;;;5034606;28;20462;-90
2022/08/28 11:36:20;;;;;;;1.60;1.50;;;21.90;90.60;;;;;;5034987;28;20175;-90
2022/08/28 11:38:54;;;;;;;1.87;1.27;;;21.90;91.90;;;;;;5036949;28;20447;-91
2022/08/28 11:41:26;;;;;;;3.03;1.57;;;22.00;90.90;;;;;;5035915;28;20513;-90
2022/08/28 11:44:11;;;;;;;4.50;1.87;;;22.00;90.40;;;;;;5034882;28;20913;-89
2022/08/28 11:46:38;;;;;;;1.23;1.03;;;22.00;90.30;;;;;;5034661;28;20497;-90
2022/08/28 11:49:27;;;;;;;5.27;1.73;;;22.00;90.70;;;;;;5034319;28;20488;-91
2022/08/28 11:52:34;;;;;;;1.93;1.40;;;22.20;91.40;;;;;;5025150;28;20439;-91
2022/08/28 11:55:21;;;;;;;5.13;1.43;;;22.30;91.10;;;;;;4958769;28;20417;-90
2022/08/28 11:57:57;;;;;;;1.27;0.97;;;22.40;89.70;;;;;;5033630;28;20766;-90
2022/08/28 12:00:45;;;;;;;0.90;0.80;;;22.50;89.40;;;;;;5035245;28;20507;-90
2022/08/28 12:03:45;;;;;;;5.67;2.83;;;22.50;89.40;;;;;;5034547;28;20501;-88
2022/08/28 12:06:12;;;;;;;1.23;1.23;;;22.60;89.20;;;;;;4974638;28;20916;-89
2022/08/28 12:08:43;;;;;;;2.10;1.80;;;22.60;88.20;;;;;;5018499;28;20427;-90
2022/08/28 12:11:30;;;;;;;1.73;1.30;;;22.60;88.20;;;;;;5034195;28;20495;-92
2022/08/28 12:13:56;;;;;;;1.63;1.53;;;22.70;88.50;;;;;;5033167;28;20568;-90
2022/08/28 12:16:22;;;;;;;2.00;1.40;;;22.80;88.10;;;;;;5022381;28;20516;-90
2022/08/28 12:18:48;;;;;;;2.00;1.00;;;22.90;87.60;;;;;;5013906;28;20867;-90
2022/08/28 12:21:19;;;;;;;3.00;1.60;;;22.90;88.50;;;;;;5014881;28;20276;-90
2022/08/28 12:24:23;;;;;;;6.03;1.60;;;23.00;88.50;;;;;;5015141;28;20232;-89
2022/08/28 12:26:55;;;;;;;1.30;1.20;;;23.10;87.80;;;;;;5014367;28;20424;-90
2022/08/28 12:29:37;;;;;;;1.43;1.27;;;23.20;88.10;;;;;;5014486;28;20450;-90
2022/08/28 12:32:27;;;;;;;2.17;2.00;;;23.40;89.20;;;;;;5014822;28;20468;-90
2022/08/28 12:34:58;;;;;;;4.97;1.10;;;23.50;86.10;;;;;;5014460;28;20420;-90
2022/08/28 12:37:44;;;;;;;1.47;1.30;;;23.60;86.10;;;;;;5013987;28;20421;-90
2022/08/28 12:40:18;;;;;;;3.93;1.63;;;23.70;87.30;;;;;;5014136;28;20985;-90
2022/08/28 12:42:57;;;;;;;3.40;1.40;;;23.80;85.40;;;;;;5014430;28;20969;-90
2022/08/28 12:45:48;;;;;;;3.07;1.17;;;23.80;85.40;;;;;;5015623;28;20416;-90
2022/08/28 12:48:24;;;;;;;3.17;1.93;;;23.90;85.60;;;;;;5014478;28;20440;-90
2022/08/28 12:51:12;;;;;;;5.83;2.40;;;24.00;85.90;;;;;;5014222;28;20420;-93
2022/08/28 12:53:41;;;;;;;1.23;1.20;;;24.10;85.10;;;;;;5013522;28;20476;-91
2022/08/28 12:56:09;;;;;;;14.00;1.83;;;24.20;85.30;;;;;;5013329;28;20432;-90
2022/08/28 12:58:38;;;;;;;2.60;1.37;;;24.30;85.30;;;;;;5014185;28;20763;-90
2022/08/28 13:01:11;;;;;;;5.07;1.47;;;24.40;85.80;;;;;;5013845;28;20972;-90
2022/08/28 13:04:01;;;;;;;1.77;1.40;;;24.50;84.70;;;;;;5014093;28;20979;-90
2022/08/28 13:06:31;;;;;;;1.17;1.10;;;24.50;83.50;;;;;;5004502;28;20507;-90
2022/08/28 13:09:04;;;;;;;2.80;2.60;;;24.50;83.60;;;;;;5017026;28;20423;-91
2022/08/28 13:11:38;;;;;;;1.13;1.13;;;24.60;82.50;;;;;;5024776;28;20470;-91
2022/08/28 13:14:07;;;;;;;4.77;2.00;;;24.50;80.30;;;;;;5019904;28;21000;-90